Terminal Aerodrome Forecast
Issued by NWS

Home | Current Version | Previous Version | Text Only | Print | Product List | Glossary On
Versions: 1 2 3 4 5 6 7 8 9 10 11 12
233
FTUS46 KMTR 251720
TAFSNS
TAF
KSNS 251720Z 2518/2618 26010KT P6SM FEW030 SCT120
     FM260200 25011KT P6SM SCT012 SCT100
     FM260500 25006KT P6SM SCT010 SCT020
     FM260800 VRB03KT P6SM BKN010 OVC030=

USA.gov is the U.S. government's official web portal to all federal, state and local government web resources and services.